createdAt,value
2019-05-26T00:01:31.019Z,67.75
2019-05-26T00:04:03.289Z,82.27
2019-05-26T00:06:36.074Z,74.05
2019-05-26T00:09:08.040Z,68.85
2019-05-26T00:11:40.317Z,73.07
2019-05-26T00:14:12.695Z,70.72
2019-05-26T00:16:45.275Z,70.42
2019-05-26T00:19:17.757Z,71.10
2019-05-26T00:21:49.930Z,74.40
2019-05-26T00:24:22.263Z,62.45
2019-05-26T00:26:54.687Z,57.20
2019-05-26T00:29:26.546Z,47.13
2019-05-26T00:31:59.432Z,51.65
2019-05-26T00:34:31.502Z,45.73
2019-05-26T00:37:03.880Z,37.00
2019-05-26T00:39:36.360Z,42.60
2019-05-26T00:42:08.744Z,32.40
2019-05-26T00:44:41.036Z,29.00
2019-05-26T00:47:13.385Z,32.53
2019-05-26T00:49:45.557Z,27.93
2019-05-26T00:52:17.829Z,27.20
2019-05-26T00:54:50.206Z,30.80
2019-05-26T00:57:22.594Z,26.80
2019-05-26T00:59:54.649Z,29.35
2019-05-26T01:02:27.030Z,29.77
2019-05-26T01:04:59.562Z,24.50
2019-05-26T01:07:31.783Z,26.27
2019-05-26T01:10:06.496Z,28.42
2019-05-26T01:12:38.581Z,26.25
2019-05-26T01:15:10.857Z,32.93
2019-05-26T01:17:43.435Z,24.55
2019-05-26T01:20:15.607Z,21.35
2019-05-26T01:22:47.779Z,23.62
2019-05-26T01:25:19.854Z,33.10
2019-05-26T01:27:52.231Z,27.70
2019-05-26T01:30:27.774Z,31.60
2019-05-26T01:32:59.742Z,25.82
2019-05-26T01:35:32.121Z,27.82
2019-05-26T01:38:04.401Z,36.38
2019-05-26T01:40:41.155Z,27.45
2019-05-26T01:43:13.122Z,36.03
2019-05-26T01:45:45.207Z,42.25
2019-05-26T01:48:17.182Z,46.05
2019-05-26T01:50:49.348Z,49.63
2019-05-26T01:53:21.620Z,50.15
2019-05-26T01:55:53.696Z,45.85
2019-05-26T01:58:26.061Z,61.88
2019-05-26T02:00:58.546Z,57.85
2019-05-26T02:03:31.019Z,58.23
2019-05-26T02:06:02.988Z,76.62
2019-05-26T02:08:39.499Z,72.75
2019-05-26T02:11:08.941Z,69.87
2019-05-26T02:13:40.839Z,82.08
2019-05-26T02:16:13.015Z,91.42
2019-05-26T02:18:44.986Z,74.80
2019-05-26T02:21:17.157Z,81.97
2019-05-26T02:23:49.320Z,71.67
2019-05-26T02:26:21.493Z,75.00
2019-05-26T02:28:53.874Z,70.67
2019-05-26T02:31:26.052Z,80.67
2019-05-26T02:33:58.421Z,77.08
2019-05-26T02:36:30.902Z,80.97
2019-05-26T02:39:03.662Z,73.28
2019-05-26T02:41:35.650Z,71.25
2019-05-26T02:44:08.131Z,69.65
2019-05-26T02:46:40.397Z,77.47
2019-05-26T02:49:12.777Z,81.87
2019-05-26T02:51:44.848Z,71.15
2019-05-26T02:54:17.329Z,62.50
2019-05-26T02:56:49.617Z,62.60
2019-05-26T02:59:21.877Z,61.02
2019-05-26T03:02:03.266Z,67.25
2019-05-26T03:04:28.164Z,64.82
2019-05-26T03:07:00.956Z,67.90
2019-05-26T03:09:35.173Z,62.62
2019-05-26T03:12:07.313Z,62.78
2019-05-26T03:14:40.230Z,71.25
2019-05-26T03:17:12.182Z,61.65
2019-05-26T03:19:46.006Z,51.40
2019-05-26T03:22:19.261Z,55.63
2019-05-26T03:24:53.451Z,56.63
2019-05-26T03:27:26.006Z,50.45
2019-05-26T03:29:57.970Z,51.70
2019-05-26T03:32:30.562Z,44.27
2019-05-26T03:35:02.729Z,48.55
2019-05-26T03:37:34.890Z,55.88
2019-05-26T03:40:09.115Z,46.60
2019-05-26T03:42:41.386Z,54.55
2019-05-26T03:45:33.706Z,58.95
2019-05-26T03:48:06.000Z,59.63
2019-05-26T03:50:39.604Z,48.00
2019-05-26T03:53:12.076Z,52.45
2019-05-26T03:55:44.354Z,50.70
2019-05-26T03:58:16.319Z,52.08
2019-05-26T04:00:48.693Z,44.63
2019-05-26T04:03:20.790Z,39.53
2019-05-26T04:05:52.841Z,42.58
2019-05-26T04:08:25.013Z,51.77
2019-05-26T04:10:57.605Z,45.05
2019-05-26T04:13:29.765Z,56.25
2019-05-26T04:16:01.938Z,53.50
2019-05-26T04:18:34.012Z,57.88
2019-05-26T04:21:06.074Z,64.92
2019-05-26T04:23:38.241Z,71.60
2019-05-26T04:26:10.725Z,70.17
2019-05-26T04:28:42.796Z,72.62
2019-05-26T04:31:15.269Z,73.10
2019-05-26T04:33:47.445Z,75.37
2019-05-26T04:36:19.509Z,62.03
2019-05-26T04:38:51.477Z,63.28
2019-05-26T04:41:24.061Z,63.58
2019-05-26T04:43:56.534Z,53.10
2019-05-26T04:46:28.913Z,54.38
2019-05-26T04:49:01.194Z,47.40
2019-05-26T04:51:34.299Z,48.13
2019-05-26T04:54:06.768Z,42.85
2019-05-26T04:56:39.263Z,45.40
2019-05-26T04:59:11.207Z,29.37
2019-05-26T05:01:43.591Z,32.65
2019-05-26T05:04:15.963Z,30.37
2019-05-26T05:06:48.645Z,29.57
2019-05-26T05:09:21.018Z,25.80
2019-05-26T05:11:53.296Z,23.07
2019-05-26T05:14:26.697Z,26.93
2019-05-26T05:16:59.096Z,27.35
2019-05-26T05:19:33.299Z,27.32
2019-05-26T05:22:05.786Z,27.52
2019-05-26T05:24:37.644Z,26.70
2019-05-26T05:27:10.136Z,26.77
2019-05-26T05:29:42.599Z,21.15
2019-05-26T05:32:14.885Z,21.70
2019-05-26T05:34:47.184Z,24.02
2019-05-26T05:37:19.329Z,16.40
2019-05-26T05:39:51.711Z,17.98
2019-05-26T05:42:24.092Z,14.70
2019-05-26T05:44:56.666Z,14.65
2019-05-26T05:47:29.142Z,13.38
2019-05-26T05:50:01.635Z,14.10
2019-05-26T05:52:33.795Z,16.12
2019-05-26T05:55:06.264Z,14.60
2019-05-26T05:57:38.417Z,12.53
2019-05-26T06:00:10.602Z,8.25
2019-05-26T06:02:42.927Z,10.38
2019-05-26T06:05:15.030Z,11.63
2019-05-26T06:07:48.344Z,10.00
2019-05-26T06:10:20.833Z,7.42
2019-05-26T06:12:53.099Z,14.20
2019-05-26T06:15:25.058Z,8.20
2019-05-26T06:17:57.400Z,8.13
2019-05-26T06:20:29.661Z,10.48
2019-05-26T06:23:01.686Z,8.70
2019-05-26T06:25:34.090Z,9.38
2019-05-26T06:28:06.440Z,7.95
2019-05-26T06:30:40.572Z,8.30
2019-05-26T06:33:12.953Z,7.97
2019-05-26T06:35:45.230Z,8.93
2019-05-26T06:38:17.587Z,8.85
2019-05-26T06:40:53.718Z,9.08
2019-05-26T06:43:29.320Z,8.08
2019-05-26T06:46:02.642Z,7.20
2019-05-26T06:48:35.023Z,11.05
2019-05-26T06:51:07.427Z,8.78
2019-05-26T06:53:39.808Z,9.28
2019-05-26T06:56:11.874Z,13.85
2019-05-26T06:58:44.243Z,12.53
2019-05-26T07:01:17.584Z,15.55
2019-05-26T07:03:49.847Z,11.22
2019-05-26T07:06:21.558Z,14.63
2019-05-26T07:08:53.738Z,13.90
2019-05-26T07:11:25.708Z,13.70
2019-05-26T07:13:57.865Z,11.35
2019-05-26T07:16:37.983Z,11.25
2019-05-26T07:21:36.125Z,13.50
2019-05-26T07:24:08.088Z,10.72
2019-05-26T07:26:40.470Z,9.03
2019-05-26T07:29:12.706Z,14.75
2019-05-26T07:31:44.688Z,21.25
2019-05-26T07:34:17.946Z,12.73
2019-05-26T07:36:50.503Z,13.28
2019-05-26T07:39:22.686Z,9.35
2019-05-26T07:42:09.414Z,12.40
2019-05-26T07:44:29.167Z,9.03
2019-05-26T07:47:06.380Z,12.00
2019-05-26T07:49:38.733Z,13.30
2019-05-26T07:52:11.439Z,9.80
2019-05-26T07:54:44.067Z,10.10
2019-05-26T07:57:17.357Z,12.53
2019-05-26T07:59:50.724Z,10.15
2019-05-26T08:02:23.753Z,12.63
2019-05-26T08:04:56.376Z,15.43
2019-05-26T08:07:28.793Z,11.55
2019-05-26T08:10:01.486Z,11.05
2019-05-26T08:12:34.689Z,9.80
2019-05-26T08:15:07.522Z,14.13
2019-05-26T08:17:40.178Z,11.40
2019-05-26T08:20:13.353Z,11.73
2019-05-26T08:22:46.383Z,12.75
2019-05-26T08:25:18.978Z,17.30
2019-05-26T08:27:51.432Z,13.28
2019-05-26T08:30:23.509Z,13.48
2019-05-26T08:32:55.886Z,10.08
2019-05-26T08:35:28.345Z,8.45
2019-05-26T08:38:00.998Z,10.65
2019-05-26T08:40:33.485Z,11.18
2019-05-26T08:43:06.104Z,10.13
2019-05-26T08:45:38.038Z,8.43
2019-05-26T08:48:10.304Z,6.70
2019-05-26T08:50:42.314Z,5.70
2019-05-26T08:53:14.865Z,10.55
2019-05-26T08:55:47.195Z,9.43
2019-05-26T08:58:19.366Z,8.53
2019-05-26T09:00:52.277Z,6.85
2019-05-26T09:03:25.714Z,6.40
2019-05-26T09:05:58.145Z,6.80
2019-05-26T09:08:30.541Z,7.75
2019-05-26T09:11:03.045Z,8.83
2019-05-26T09:13:35.533Z,6.12
2019-05-26T09:16:08.520Z,10.72
2019-05-26T09:18:40.790Z,12.23
2019-05-26T09:21:13.401Z,8.45
2019-05-26T09:23:45.811Z,10.55
2019-05-26T09:26:18.419Z,13.08
2019-05-26T09:28:50.493Z,7.70
2019-05-26T09:31:22.760Z,8.23
2019-05-26T09:33:55.243Z,6.95
2019-05-26T09:36:27.926Z,8.60
2019-05-26T09:39:00.197Z,9.00
2019-05-26T09:41:32.194Z,10.30
2019-05-26T09:44:04.434Z,9.05
2019-05-26T09:46:36.713Z,8.23
2019-05-26T09:49:08.696Z,9.00
2019-05-26T09:51:40.748Z,9.35
2019-05-26T09:54:13.183Z,9.93
2019-05-26T09:56:45.142Z,6.33
2019-05-26T09:59:17.564Z,7.42
2019-05-26T10:01:49.830Z,13.50
2019-05-26T10:04:22.321Z,8.10
2019-05-26T10:06:54.598Z,9.13
2019-05-26T10:09:26.662Z,8.28
2019-05-26T10:11:58.902Z,9.33
2019-05-26T10:14:30.975Z,7.35
2019-05-26T10:17:03.259Z,5.15
2019-05-26T10:19:35.527Z,4.55
2019-05-26T10:22:07.603Z,9.18
2019-05-26T10:24:39.453Z,4.87
2019-05-26T10:27:11.624Z,7.95
2019-05-26T10:29:44.816Z,7.05
2019-05-26T10:32:16.873Z,5.97
2019-05-26T10:34:49.073Z,9.58
2019-05-26T10:37:21.241Z,4.83
2019-05-26T10:39:53.446Z,8.50
2019-05-26T10:42:25.782Z,29.45
2019-05-26T10:44:57.866Z,12.18
2019-05-26T10:47:30.245Z,14.03
2019-05-26T10:50:02.303Z,16.02
2019-05-26T10:52:34.524Z,14.07
2019-05-26T10:55:07.554Z,18.25
2019-05-26T10:57:40.092Z,17.32
2019-05-26T11:00:12.412Z,21.95
2019-05-26T11:02:44.686Z,20.80
2019-05-26T11:05:17.099Z,13.85
2019-05-26T11:07:49.534Z,9.30
2019-05-26T11:10:21.396Z,14.60
2019-05-26T11:12:53.882Z,9.78
2019-05-26T11:15:25.944Z,12.07
2019-05-26T11:17:58.315Z,14.20
2019-05-26T11:20:30.489Z,9.18
2019-05-26T11:23:02.759Z,10.78
2019-05-26T11:25:34.929Z,7.22
2019-05-26T11:28:07.205Z,7.42
2019-05-26T11:30:39.356Z,11.95
2019-05-26T11:33:11.548Z,7.90
2019-05-26T11:35:43.612Z,7.47
2019-05-26T11:38:15.382Z,5.03
2019-05-26T11:40:47.913Z,9.63
2019-05-26T11:43:20.448Z,7.00
2019-05-26T11:45:53.408Z,10.60
2019-05-26T11:48:26.217Z,7.62
2019-05-26T11:50:58.384Z,9.33
2019-05-26T11:53:31.134Z,8.53
2019-05-26T11:56:03.231Z,18.30
2019-05-26T11:58:35.498Z,18.82
2019-05-26T12:01:08.145Z,14.68
2019-05-26T12:03:40.573Z,11.60
2019-05-26T12:06:12.901Z,14.28
2019-05-26T12:08:45.132Z,15.15
2019-05-26T12:11:17.396Z,8.43
2019-05-26T12:13:49.751Z,9.68
2019-05-26T12:16:21.888Z,7.47
2019-05-26T12:18:55.223Z,7.97
2019-05-26T12:21:27.693Z,7.87
2019-05-26T12:23:59.934Z,14.65
2019-05-26T12:26:31.907Z,11.10
2019-05-26T12:29:04.270Z,10.55
2019-05-26T12:31:36.342Z,17.42
2019-05-26T12:34:08.304Z,9.38
2019-05-26T12:36:40.612Z,6.17
2019-05-26T12:39:13.485Z,8.05
2019-05-26T12:41:45.855Z,9.80
2019-05-26T12:44:18.245Z,6.83
2019-05-26T12:46:50.187Z,13.05
2019-05-26T12:49:22.452Z,12.00
2019-05-26T12:51:54.519Z,14.73
2019-05-26T12:54:26.852Z,8.70
2019-05-26T12:56:59.073Z,13.55
2019-05-26T12:59:31.132Z,10.05
2019-05-26T13:02:03.323Z,9.30
2019-05-26T13:04:35.585Z,6.78
2019-05-26T13:07:07.848Z,6.90
2019-05-26T13:09:40.128Z,4.83
2019-05-26T13:12:12.496Z,8.60
2019-05-26T13:14:44.769Z,10.65
2019-05-26T13:17:16.836Z,10.25
2019-05-26T13:19:49.425Z,7.05
2019-05-26T13:22:21.706Z,8.48
2019-05-26T13:24:53.968Z,7.03
2019-05-26T13:27:26.431Z,8.15
2019-05-26T13:29:58.976Z,13.53
2019-05-26T13:32:30.883Z,9.08
2019-05-26T13:35:02.849Z,9.18
2019-05-26T13:37:34.756Z,6.28
2019-05-26T13:40:08.227Z,10.93
2019-05-26T13:42:40.489Z,5.58
2019-05-26T13:45:22.496Z,10.20
2019-05-26T13:47:46.408Z,10.77
2019-05-26T13:50:18.649Z,22.50
2019-05-26T13:52:52.151Z,26.65
2019-05-26T13:55:24.428Z,23.77
2019-05-26T13:57:56.689Z,23.87
2019-05-26T14:00:28.964Z,29.10
2019-05-26T14:03:01.244Z,26.05
2019-05-26T14:05:33.516Z,18.50
2019-05-26T14:08:05.686Z,14.85
2019-05-26T14:10:37.973Z,10.18
2019-05-26T14:13:10.629Z,8.90
2019-05-26T14:15:43.093Z,6.00
2019-05-26T14:18:18.085Z,9.05
2019-05-26T14:20:48.906Z,7.80
2019-05-26T14:23:20.965Z,13.13
2019-05-26T14:25:53.136Z,21.30
2019-05-26T14:28:25.004Z,21.52
2019-05-26T14:30:57.582Z,23.77
2019-05-26T14:33:29.860Z,30.62
2019-05-26T14:36:02.271Z,29.60
2019-05-26T14:38:43.090Z,37.80
2019-05-26T14:41:08.621Z,33.40
2019-05-26T14:43:40.899Z,39.15
2019-05-26T14:46:12.961Z,27.82
2019-05-26T14:48:45.029Z,26.02
2019-05-26T14:51:17.202Z,26.07
2019-05-26T14:53:49.470Z,33.63
2019-05-26T14:56:21.469Z,290.55
2019-05-26T14:58:53.615Z,35.88
2019-05-26T15:01:26.088Z,52.13
2019-05-26T15:04:00.406Z,28.57
2019-05-26T15:06:32.677Z,20.80
2019-05-26T15:09:07.520Z,27.50
2019-05-26T15:11:39.497Z,16.50
2019-05-26T15:14:11.744Z,17.80
2019-05-26T15:16:43.912Z,19.48
2019-05-26T15:19:16.085Z,14.75
2019-05-26T15:21:48.454Z,20.30
2019-05-26T15:24:20.732Z,26.23
2019-05-26T15:26:53.101Z,21.65
2019-05-26T15:29:25.172Z,20.88
2019-05-26T15:31:57.339Z,23.12
2019-05-26T15:34:29.300Z,22.93
2019-05-26T15:37:01.264Z,23.22
2019-05-26T15:39:33.491Z,25.55
2019-05-26T15:42:08.347Z,26.73
2019-05-26T15:44:39.848Z,28.47
2019-05-26T15:47:12.031Z,19.70
2019-05-26T15:49:44.360Z,17.77
2019-05-26T15:52:16.529Z,8.93
2019-05-26T15:54:48.596Z,13.20
2019-05-26T15:57:20.466Z,12.40
2019-05-26T15:59:54.585Z,11.55
2019-05-26T16:02:26.337Z,15.00
2019-05-26T16:04:59.138Z,12.55
2019-05-26T16:07:31.195Z,14.78
2019-05-26T16:10:04.274Z,16.95
2019-05-26T16:12:36.044Z,21.77
2019-05-26T16:15:08.615Z,20.50
2019-05-26T16:17:40.576Z,11.78
2019-05-26T16:20:12.451Z,9.93
2019-05-26T16:22:44.383Z,7.92
2019-05-26T16:25:16.517Z,7.95
2019-05-26T16:27:48.234Z,10.88
2019-05-26T16:30:20.202Z,8.58
2019-05-26T16:32:52.265Z,8.98
2019-05-26T16:35:24.437Z,10.05
2019-05-26T16:37:56.514Z,9.98
2019-05-26T16:40:28.676Z,10.13
2019-05-26T16:43:00.535Z,7.85
2019-05-26T16:45:36.930Z,9.15
2019-05-26T16:48:07.445Z,11.12
2019-05-26T16:50:39.602Z,12.30
2019-05-26T16:53:11.382Z,11.97
2019-05-26T16:55:44.153Z,8.53
2019-05-26T16:58:15.905Z,11.63
2019-05-26T17:00:47.981Z,9.13
2019-05-26T17:03:23.011Z,11.68
2019-05-26T17:06:07.511Z,11.08
2019-05-26T17:08:28.987Z,12.93
2019-05-26T17:11:02.235Z,8.43
2019-05-26T17:13:35.374Z,12.30
2019-05-26T17:16:07.545Z,12.20
2019-05-26T17:18:39.300Z,12.88
2019-05-26T17:21:10.962Z,9.60
2019-05-26T17:23:42.824Z,11.38
2019-05-26T17:26:14.788Z,11.43
2019-05-26T17:28:47.062Z,15.18
2019-05-26T17:31:18.932Z,11.35
2019-05-26T17:33:51.138Z,12.03
2019-05-26T17:36:23.469Z,13.13
2019-05-26T17:38:55.432Z,12.68
2019-05-26T17:41:27.400Z,18.92
2019-05-26T17:43:59.669Z,13.80
2019-05-26T17:46:31.846Z,12.50
2019-05-26T17:49:04.153Z,11.18
2019-05-26T17:51:35.987Z,12.95
2019-05-26T17:54:08.759Z,12.98
2019-05-26T17:56:40.930Z,15.93
2019-05-26T17:59:13.198Z,14.80
2019-05-26T18:01:44.983Z,13.20
2019-05-26T18:04:17.332Z,18.05
2019-05-26T18:06:49.599Z,9.70
2019-05-26T18:09:21.880Z,18.87
2019-05-26T18:11:54.146Z,15.13
2019-05-26T18:14:26.208Z,14.43
2019-05-26T18:16:58.092Z,9.58
2019-05-26T18:19:30.360Z,11.35
2019-05-26T18:22:02.208Z,15.32
2019-05-26T18:24:34.282Z,10.70
2019-05-26T18:27:07.366Z,12.93
2019-05-26T18:29:39.638Z,14.83
2019-05-26T18:32:11.728Z,11.85
2019-05-26T18:34:44.085Z,15.80
2019-05-26T18:37:16.352Z,15.18
2019-05-26T18:39:48.828Z,15.65
2019-05-26T18:42:21.918Z,22.02
2019-05-26T18:44:54.085Z,25.08
2019-05-26T18:47:26.254Z,26.45
2019-05-26T18:49:58.859Z,45.92
2019-05-26T18:52:31.316Z,35.10
2019-05-26T18:55:03.684Z,33.98
2019-05-26T18:57:35.958Z,34.00
2019-05-26T19:00:08.334Z,42.73
2019-05-26T19:02:40.198Z,38.95
2019-05-26T19:05:12.674Z,51.28
2019-05-26T19:07:45.161Z,39.73
2019-05-26T19:10:17.530Z,49.15
2019-05-26T19:12:49.690Z,34.35
2019-05-26T19:15:22.078Z,33.73
2019-05-26T19:17:54.069Z,34.10
2019-05-26T19:20:26.526Z,41.65
2019-05-26T19:22:58.803Z,42.58
2019-05-26T19:25:31.188Z,33.15
2019-05-26T19:28:03.452Z,46.28
2019-05-26T19:30:35.829Z,36.08
2019-05-26T19:33:08.916Z,40.80
2019-05-26T19:35:41.093Z,36.70
2019-05-26T19:38:13.060Z,42.80
2019-05-26T19:40:45.130Z,33.95
2019-05-26T19:43:17.102Z,34.70
2019-05-26T19:45:49.269Z,29.05
2019-05-26T19:48:34.953Z,35.08
2019-05-26T19:50:56.476Z,33.58
2019-05-26T19:53:28.548Z,33.70
2019-05-26T19:56:00.922Z,33.18
2019-05-26T19:58:32.889Z,28.50
2019-05-26T20:01:05.161Z,24.10
2019-05-26T20:03:37.230Z,27.27
2019-05-26T20:06:09.119Z,22.37
2019-05-26T20:08:41.064Z,29.95
2019-05-26T20:11:14.356Z,21.40
2019-05-26T20:13:46.730Z,20.77
2019-05-26T20:16:18.797Z,23.30
2019-05-26T20:18:51.070Z,21.10
2019-05-26T20:21:23.548Z,19.50
2019-05-26T20:23:55.613Z,21.02
2019-05-26T20:26:28.908Z,17.23
2019-05-26T20:29:00.982Z,18.57
2019-05-26T20:31:33.259Z,18.02
2019-05-26T20:34:05.346Z,13.55
2019-05-26T20:36:37.698Z,17.05
2019-05-26T20:39:09.873Z,17.82
2019-05-26T20:41:42.255Z,15.13
2019-05-26T20:44:14.517Z,13.35
2019-05-26T20:46:46.896Z,12.80
2019-05-26T20:49:19.063Z,19.12
2019-05-26T20:51:51.546Z,14.90
2019-05-26T20:54:23.716Z,17.80
2019-05-26T20:56:55.780Z,14.18
2019-05-26T20:59:28.050Z,16.20
2019-05-26T21:02:00.117Z,16.73
2019-05-26T21:04:32.403Z,14.83
2019-05-26T21:07:04.559Z,14.40
2019-05-26T21:09:36.826Z,12.70
2019-05-26T21:12:09.098Z,13.80
2019-05-26T21:14:41.273Z,13.55
2019-05-26T21:17:13.334Z,19.52
2019-05-26T21:19:45.404Z,13.20
2019-05-26T21:22:18.087Z,12.82
2019-05-26T21:24:50.051Z,12.80
2019-05-26T21:27:22.126Z,16.85
2019-05-26T21:29:54.193Z,15.40
2019-05-26T21:32:31.079Z,13.18
2019-05-26T21:35:00.880Z,25.40
2019-05-26T21:37:32.656Z,16.40
2019-05-26T21:40:06.849Z,17.00
2019-05-26T21:42:38.986Z,19.50
2019-05-26T21:45:11.206Z,25.40
2019-05-26T21:47:43.577Z,21.77
2019-05-26T21:50:15.948Z,27.10
2019-05-26T21:52:48.328Z,20.57
2019-05-26T21:55:20.390Z,20.95
2019-05-26T21:57:52.773Z,27.30
2019-05-26T22:00:26.782Z,26.77
2019-05-26T22:02:59.021Z,31.20
2019-05-26T22:05:31.429Z,23.77
2019-05-26T22:08:03.923Z,38.78
2019-05-26T22:10:36.386Z,32.65
2019-05-26T22:13:10.128Z,33.35
2019-05-26T22:15:42.575Z,29.80
2019-05-26T22:18:14.828Z,33.48
2019-05-26T22:20:46.866Z,29.85
2019-05-26T22:23:18.899Z,26.42
2019-05-26T22:25:50.738Z,38.75
2019-05-26T22:28:23.217Z,35.03
2019-05-26T22:30:55.597Z,28.95
2019-05-26T22:33:27.969Z,34.45
2019-05-26T22:36:00.346Z,34.45
2019-05-26T22:38:32.414Z,39.95
2019-05-26T22:41:04.690Z,37.42
2019-05-26T22:43:37.676Z,44.38
2019-05-26T22:46:09.644Z,32.65
2019-05-26T22:48:41.817Z,31.17
2019-05-26T22:51:13.782Z,33.55
2019-05-26T22:53:46.051Z,32.95
2019-05-26T22:56:18.533Z,33.85
2019-05-26T22:58:50.820Z,29.25
2019-05-26T23:01:23.175Z,28.23
2019-05-26T23:03:56.086Z,22.22
2019-05-26T23:06:28.439Z,21.90
2019-05-26T23:09:00.514Z,24.70
2019-05-26T23:11:32.884Z,19.62
2019-05-26T23:14:05.460Z,18.20
2019-05-26T23:16:37.545Z,15.85
2019-05-26T23:19:18.970Z,15.05
2019-05-26T23:21:43.725Z,15.23
2019-05-26T23:24:15.790Z,12.98
2019-05-26T23:26:48.324Z,18.27
2019-05-26T23:29:20.441Z,10.68
2019-05-26T23:34:26.565Z,11.90
2019-05-26T23:36:59.008Z,16.85
2019-05-26T23:39:31.079Z,11.97
2019-05-26T23:42:03.451Z,12.53
2019-05-26T23:44:35.827Z,11.90
2019-05-26T23:47:08.057Z,11.97
2019-05-26T23:49:40.365Z,10.18
2019-05-26T23:52:12.375Z,10.85
2019-05-26T23:54:44.915Z,6.92
2019-05-26T23:57:17.082Z,8.90
2019-05-26T23:59:49.250Z,7.35
